Matagorda, Texas
Current Conditions -  °F | °C
As of 4:53 PM on Monday 24 Nov 2014 (Local Time) from KPSX Reporting Station
Overcast Overcast  
Wind Chill: 62°   Ceiling: 11000
Heat Index: 62°   Visibility: 10mi
Dew Point: 39°   Wind: 8mph
Humidity: 43%   Direction: 350°N
Pressure: 30.03"   Gusts: NA
Location:  28.69°N, 95.97°W
Report Text: KPSX 242253Z AUTO 35007KT 10SM OVC110 17/04 A3003 RMK AO2 SLP169 T01670039
Loading
Personal Weather Stations






























Interactive Weather Map New forecast layout! Learn more

10-Day Weather Forecast

Advertisements
Track Severe Weather on mobile